Terminal Aerodrome Forecast
Issued by NWS

Home | Current Version | Previous Version | Text Only | Print | Product List | Glossary On
Versions: 1 2 3 4 5 6 7 8 9 10 11 12 13 14 15
000
FTAK31 PAJN 181100
TAFAGY
TAF
PAGY 181137Z 1812/1912 21012G20KT P6SM -SHRA FEW010 BKN035 OVC050
     FM181500 21013G25KT P6SM VCSH SCT025 OVC050
     FM182300 21012G24KT P6SM SCT035 BKN070
     FM190400 21006KT P6SM SCT035 SCT070
     FM190900 VRB03KT P6SM FEW100
      AMD LTD TO CLD VIS AND WIND=

USA.gov is the U.S. government's official web portal to all federal, state and local government web resources and services.